sensor_id;sensor_type;location;lat;lon;timestamp;pressure;altitude;pressure_sealevel;temperature;humidity
48718;BME280;34521;33.042;-96.586;2023-04-26T00:01:45;99324.08;;;21.64;31.92
48718;BME280;34521;33.042;-96.586;2023-04-26T00:04:11;99321.32;;;21.75;31.76
48718;BME280;34521;33.042;-96.586;2023-04-26T00:06:35;99320.12;;;21.58;32.03
48718;BME280;34521;33.042;-96.586;2023-04-26T00:09:00;99329.86;;;22.01;32.02
48718;BME280;34521;33.042;-96.586;2023-04-26T00:11:25;99329.69;;;21.97;31.89
48718;BME280;34521;33.042;-96.586;2023-04-26T00:13:50;99327.94;;;21.58;32.35
48718;BME280;34521;33.042;-96.586;2023-04-26T00:16:16;99329.67;;;21.40;33.08
48718;BME280;34521;33.042;-96.586;2023-04-26T00:18:40;99328.16;;;21.61;32.71
48718;BME280;34521;33.042;-96.586;2023-04-26T00:21:06;99338.67;;;22.19;32.28
48718;BME280;34521;33.042;-96.586;2023-04-26T00:23:31;99344.14;;;21.61;33.03
48718;BME280;34521;33.042;-96.586;2023-04-26T00:25:57;99343.83;;;22.41;31.50
48718;BME280;34521;33.042;-96.586;2023-04-26T00:28:21;99341.23;;;22.60;31.00
48718;BME280;34521;33.042;-96.586;2023-04-26T00:30:46;99341.44;;;22.29;31.41
48718;BME280;34521;33.042;-96.586;2023-04-26T00:33:11;99346.84;;;22.06;31.77
48718;BME280;34521;33.042;-96.586;2023-04-26T00:35:37;99350.41;;;22.25;31.43
48718;BME280;34521;33.042;-96.586;2023-04-26T00:38:01;99352.04;;;22.23;31.29
48718;BME280;34521;33.042;-96.586;2023-04-26T00:40:26;99345.24;;;22.56;30.95
48718;BME280;34521;33.042;-96.586;2023-04-26T00:42:57;99342.02;;;22.18;31.13
48718;BME280;34521;33.042;-96.586;2023-04-26T00:45:17;99342.76;;;22.23;31.38
48718;BME280;34521;33.042;-96.586;2023-04-26T00:47:41;99347.05;;;22.62;30.95
48718;BME280;34521;33.042;-96.586;2023-04-26T00:50:07;99353.02;;;22.39;31.27
48718;BME280;34521;33.042;-96.586;2023-04-26T00:52:31;99357.51;;;21.92;31.84
48718;BME280;34521;33.042;-96.586;2023-04-26T00:54:57;99363.22;;;22.23;31.49
48718;BME280;34521;33.042;-96.586;2023-04-26T00:57:21;99366.52;;;22.59;31.12
48718;BME280;34521;33.042;-96.586;2023-04-26T00:59:46;99368.15;;;22.44;31.63
48718;BME280;34521;33.042;-96.586;2023-04-26T01:02:12;99366.47;;;22.19;31.29
48718;BME280;34521;33.042;-96.586;2023-04-26T01:04:36;99365.70;;;23.33;30.32
48718;BME280;34521;33.042;-96.586;2023-04-26T01:07:02;99368.41;;;22.42;31.01
48718;BME280;34521;33.042;-96.586;2023-04-26T01:09:28;99368.27;;;22.32;31.38
48718;BME280;34521;33.042;-96.586;2023-04-26T01:11:52;99365.47;;;22.46;31.50
48718;BME280;34521;33.042;-96.586;2023-04-26T01:14:17;99362.02;;;21.72;32.64
48718;BME280;34521;33.042;-96.586;2023-04-26T01:16:42;99376.51;;;21.03;33.41
48718;BME280;34521;33.042;-96.586;2023-04-26T01:19:08;99380.78;;;21.33;33.40
48718;BME280;34521;33.042;-96.586;2023-04-26T01:21:32;99392.87;;;21.21;33.78
48718;BME280;34521;33.042;-96.586;2023-04-26T01:23:57;99394.29;;;21.36;33.71
48718;BME280;34521;33.042;-96.586;2023-04-26T01:26:22;99388.96;;;22.38;32.15
48718;BME280;34521;33.042;-96.586;2023-04-26T01:28:47;99385.96;;;22.27;31.90
48718;BME280;34521;33.042;-96.586;2023-04-26T01:31:12;99378.40;;;21.94;32.13
48718;BME280;34521;33.042;-96.586;2023-04-26T01:33:37;99376.03;;;22.37;31.59
48718;BME280;34521;33.042;-96.586;2023-04-26T01:36:06;99379.98;;;22.02;32.11
48718;BME280;34521;33.042;-96.586;2023-04-26T01:38:28;99390.18;;;22.19;32.13
48718;BME280;34521;33.042;-96.586;2023-04-26T01:40:53;99389.89;;;21.98;32.20
48718;BME280;34521;33.042;-96.586;2023-04-26T01:43:18;99405.55;;;21.96;31.95
48718;BME280;34521;33.042;-96.586;2023-04-26T01:45:46;99410.50;;;21.62;32.48
48718;BME280;34521;33.042;-96.586;2023-04-26T01:48:08;99409.11;;;22.07;32.29
48718;BME280;34521;33.042;-96.586;2023-04-26T01:50:33;99416.11;;;21.48;32.70
48718;BME280;34521;33.042;-96.586;2023-04-26T01:52:58;99416.47;;;21.56;32.49
48718;BME280;34521;33.042;-96.586;2023-04-26T01:55:23;99420.58;;;21.82;32.18
48718;BME280;34521;33.042;-96.586;2023-04-26T01:57:48;99422.82;;;21.64;32.44
48718;BME280;34521;33.042;-96.586;2023-04-26T02:00:13;99427.42;;;21.67;32.43
48718;BME280;34521;33.042;-96.586;2023-04-26T02:02:38;99431.07;;;21.76;32.22
48718;BME280;34521;33.042;-96.586;2023-04-26T02:05:03;99432.73;;;21.68;32.30
48718;BME280;34521;33.042;-96.586;2023-04-26T02:07:28;99430.40;;;21.44;32.50
48718;BME280;34521;33.042;-96.586;2023-04-26T02:09:53;99435.92;;;21.29;32.43
48718;BME280;34521;33.042;-96.586;2023-04-26T02:12:18;99444.85;;;20.86;33.38
48718;BME280;34521;33.042;-96.586;2023-04-26T02:14:44;99448.44;;;21.36;33.24
48718;BME280;34521;33.042;-96.586;2023-04-26T02:17:09;99442.62;;;21.95;32.89
48718;BME280;34521;33.042;-96.586;2023-04-26T02:19:33;99443.38;;;21.46;33.18
48718;BME280;34521;33.042;-96.586;2023-04-26T02:21:59;99449.27;;;20.95;34.13
48718;BME280;34521;33.042;-96.586;2023-04-26T02:24:24;99445.71;;;21.92;32.91
48718;BME280;34521;33.042;-96.586;2023-04-26T02:26:49;99446.28;;;21.82;32.63
48718;BME280;34521;33.042;-96.586;2023-04-26T02:29:14;99450.70;;;21.76;32.37
48718;BME280;34521;33.042;-96.586;2023-04-26T02:31:39;99457.01;;;21.77;32.33
48718;BME280;34521;33.042;-96.586;2023-04-26T02:34:04;99460.73;;;21.55;32.49
48718;BME280;34521;33.042;-96.586;2023-04-26T02:36:29;99475.09;;;21.44;32.63
48718;BME280;34521;33.042;-96.586;2023-04-26T02:38:54;99479.51;;;21.36;32.71
48718;BME280;34521;33.042;-96.586;2023-04-26T02:41:19;99475.88;;;21.37;32.77
48718;BME280;34521;33.042;-96.586;2023-04-26T02:43:44;99480.40;;;21.63;32.36
48718;BME280;34521;33.042;-96.586;2023-04-26T02:46:09;99480.93;;;21.35;32.66
48718;BME280;34521;33.042;-96.586;2023-04-26T02:48:34;99486.72;;;21.57;32.37
48718;BME280;34521;33.042;-96.586;2023-04-26T02:50:59;99487.09;;;21.41;32.59
48718;BME280;34521;33.042;-96.586;2023-04-26T02:53:25;99486.12;;;21.22;32.74
48718;BME280;34521;33.042;-96.586;2023-04-26T02:55:49;99489.94;;;21.36;32.54
48718;BME280;34521;33.042;-96.586;2023-04-26T02:58:15;99495.62;;;21.20;32.79
48718;BME280;34521;33.042;-96.586;2023-04-26T03:00:45;99494.95;;;21.29;32.62
48718;BME280;34521;33.042;-96.586;2023-04-26T03:03:05;99495.50;;;21.19;32.78
48718;BME280;34521;33.042;-96.586;2023-04-26T03:05:30;99491.54;;;20.97;33.07
48718;BME280;34521;33.042;-96.586;2023-04-26T03:07:54;99487.75;;;21.09;32.97
48718;BME280;34521;33.042;-96.586;2023-04-26T03:10:20;99475.89;;;21.26;32.62
48718;BME280;34521;33.042;-96.586;2023-04-26T03:12:45;99462.66;;;21.75;32.82
48718;BME280;34521;33.042;-96.586;2023-04-26T03:15:10;99472.45;;;20.80;33.68
48718;BME280;34521;33.042;-96.586;2023-04-26T03:17:35;99476.09;;;20.33;34.68
48718;BME280;34521;33.042;-96.586;2023-04-26T03:20:00;99484.97;;;21.14;33.68
48718;BME280;34521;33.042;-96.586;2023-04-26T03:22:25;99492.04;;;20.13;34.99
48718;BME280;34521;33.042;-96.586;2023-04-26T03:24:50;99509.84;;;21.13;33.22
48718;BME280;34521;33.042;-96.586;2023-04-26T03:27:15;99516.45;;;21.36;32.70
48718;BME280;34521;33.042;-96.586;2023-04-26T03:29:40;99523.30;;;21.51;32.43
48718;BME280;34521;33.042;-96.586;2023-04-26T03:32:05;99532.39;;;21.41;32.58
48718;BME280;34521;33.042;-96.586;2023-04-26T03:34:30;99530.94;;;21.44;32.53
48718;BME280;34521;33.042;-96.586;2023-04-26T03:36:55;99533.44;;;21.26;32.71
48718;BME280;34521;33.042;-96.586;2023-04-26T03:39:21;99537.83;;;21.75;32.13
48718;BME280;34521;33.042;-96.586;2023-04-26T03:41:46;99539.97;;;21.26;32.69
48718;BME280;34521;33.042;-96.586;2023-04-26T03:44:11;99541.39;;;21.60;32.23
48718;BME280;34521;33.042;-96.586;2023-04-26T03:46:36;99547.90;;;21.39;32.49
48718;BME280;34521;33.042;-96.586;2023-04-26T03:49:01;99548.77;;;21.30;32.52
48718;BME280;34521;33.042;-96.586;2023-04-26T03:51:26;99544.21;;;21.51;32.29
48718;BME280;34521;33.042;-96.586;2023-04-26T03:53:51;99546.95;;;21.19;32.65
48718;BME280;34521;33.042;-96.586;2023-04-26T03:56:16;99545.10;;;21.31;32.80
48718;BME280;34521;33.042;-96.586;2023-04-26T03:58:41;99527.99;;;21.35;32.47
48718;BME280;34521;33.042;-96.586;2023-04-26T04:01:06;99519.48;;;21.02;32.81
48718;BME280;34521;33.042;-96.586;2023-04-26T04:03:31;99517.83;;;21.46;32.54
48718;BME280;34521;33.042;-96.586;2023-04-26T04:05:56;99508.68;;;21.40;32.66
48718;BME280;34521;33.042;-96.586;2023-04-26T04:08:21;99515.26;;;21.67;32.27
48718;BME280;34521;33.042;-96.586;2023-04-26T04:10:46;99509.67;;;20.25;34.39
48718;BME280;34521;33.042;-96.586;2023-04-26T04:13:12;99503.54;;;20.12;34.69
48718;BME280;34521;33.042;-96.586;2023-04-26T04:15:36;99492.70;;;21.30;33.26
48718;BME280;34521;33.042;-96.586;2023-04-26T04:18:01;99500.98;;;20.85;33.79
48718;BME280;34521;33.042;-96.586;2023-04-26T04:20:27;99495.63;;;20.36;34.82
48718;BME280;34521;33.042;-96.586;2023-04-26T04:22:52;99491.85;;;21.78;32.66
48718;BME280;34521;33.042;-96.586;2023-04-26T04:25:17;99481.27;;;21.53;32.90
48718;BME280;34521;33.042;-96.586;2023-04-26T04:27:42;99478.69;;;21.47;32.61
48718;BME280;34521;33.042;-96.586;2023-04-26T04:30:08;99477.96;;;21.54;32.55
48718;BME280;34521;33.042;-96.586;2023-04-26T04:32:32;99474.79;;;21.15;32.70
48718;BME280;34521;33.042;-96.586;2023-04-26T04:34:57;99485.90;;;21.46;32.62
48718;BME280;34521;33.042;-96.586;2023-04-26T04:37:22;99477.29;;;21.76;32.20
48718;BME280;34521;33.042;-96.586;2023-04-26T04:39:47;99466.48;;;21.49;32.52
48718;BME280;34521;33.042;-96.586;2023-04-26T04:42:12;99470.59;;;21.39;32.65
48718;BME280;34521;33.042;-96.586;2023-04-26T04:44:37;99473.44;;;21.15;32.57
48718;BME280;34521;33.042;-96.586;2023-04-26T04:47:02;99473.52;;;21.17;32.81
48718;BME280;34521;33.042;-96.586;2023-04-26T04:49:27;99475.88;;;21.34;32.61
48718;BME280;34521;33.042;-96.586;2023-04-26T04:51:52;99481.57;;;21.31;32.66
48718;BME280;34521;33.042;-96.586;2023-04-26T04:54:18;99484.83;;;21.51;32.69
48718;BME280;34521;33.042;-96.586;2023-04-26T04:56:43;99488.02;;;21.00;32.69
48718;BME280;34521;33.042;-96.586;2023-04-26T04:59:08;99487.16;;;21.02;32.65
48718;BME280;34521;33.042;-96.586;2023-04-26T05:01:33;99482.61;;;21.57;32.25
48718;BME280;34521;33.042;-96.586;2023-04-26T05:03:59;99485.67;;;21.52;31.97
48718;BME280;34521;33.042;-96.586;2023-04-26T05:06:23;99482.12;;;21.13;32.44
48718;BME280;34521;33.042;-96.586;2023-04-26T05:08:48;99477.50;;;21.21;32.34
48718;BME280;34521;33.042;-96.586;2023-04-26T05:11:13;99473.05;;;20.99;33.07
48718;BME280;34521;33.042;-96.586;2023-04-26T05:13:38;99482.59;;;20.36;34.13
48718;BME280;34521;33.042;-96.586;2023-04-26T05:16:03;99484.27;;;20.37;34.18
48718;BME280;34521;33.042;-96.586;2023-04-26T05:18:28;99482.92;;;20.62;33.88
48718;BME280;34521;33.042;-96.586;2023-04-26T05:20:53;99486.51;;;20.05;34.65
48718;BME280;34521;33.042;-96.586;2023-04-26T05:23:18;99475.51;;;21.42;32.76
48718;BME280;34521;33.042;-96.586;2023-04-26T05:25:43;99470.20;;;21.33;32.57
48718;BME280;34521;33.042;-96.586;2023-04-26T05:28:08;99469.30;;;21.07;32.61
48718;BME280;34521;33.042;-96.586;2023-04-26T05:30:33;99470.11;;;21.16;32.50
48718;BME280;34521;33.042;-96.586;2023-04-26T05:32:58;99466.15;;;21.09;32.54
48718;BME280;34521;33.042;-96.586;2023-04-26T05:35:23;99468.39;;;21.18;32.41
48718;BME280;34521;33.042;-96.586;2023-04-26T05:37:48;99469.67;;;21.09;32.54
48718;BME280;34521;33.042;-96.586;2023-04-26T05:40:14;99470.33;;;21.35;32.45
48718;BME280;34521;33.042;-96.586;2023-04-26T05:42:39;99460.70;;;21.18;32.32
48718;BME280;34521;33.042;-96.586;2023-04-26T05:45:04;99453.01;;;21.29;32.17
48718;BME280;34521;33.042;-96.586;2023-04-26T05:47:33;99461.97;;;21.48;31.91
48718;BME280;34521;33.042;-96.586;2023-04-26T05:49:54;99465.75;;;21.30;32.11
48718;BME280;34521;33.042;-96.586;2023-04-26T05:52:19;99463.57;;;21.22;32.16
48718;BME280;34521;33.042;-96.586;2023-04-26T05:54:44;99455.74;;;21.29;32.09
48718;BME280;34521;33.042;-96.586;2023-04-26T05:57:09;99458.37;;;21.36;31.97
48718;BME280;34521;33.042;-96.586;2023-04-26T05:59:36;99463.12;;;21.52;31.74
48718;BME280;34521;33.042;-96.586;2023-04-26T06:01:59;99473.79;;;21.63;31.60
48718;BME280;34521;33.042;-96.586;2023-04-26T06:04:24;99474.71;;;21.29;31.99
48718;BME280;34521;33.042;-96.586;2023-04-26T06:06:49;99469.35;;;21.74;31.72
48718;BME280;34521;33.042;-96.586;2023-04-26T06:09:15;99473.21;;;20.33;33.76
48718;BME280;34521;33.042;-96.586;2023-04-26T06:11:40;99471.92;;;19.53;34.92
48718;BME280;34521;33.042;-96.586;2023-04-26T06:14:05;99469.64;;;19.56;35.38
48718;BME280;34521;33.042;-96.586;2023-04-26T06:16:30;99471.39;;;19.17;35.87
48718;BME280;34521;33.042;-96.586;2023-04-26T06:18:55;99474.48;;;19.84;35.31
48718;BME280;34521;33.042;-96.586;2023-04-26T06:21:20;99469.76;;;20.97;33.19
48718;BME280;34521;33.042;-96.586;2023-04-26T06:23:45;99485.09;;;21.54;32.46
48718;BME280;34521;33.042;-96.586;2023-04-26T06:26:10;99498.38;;;21.52;32.44
48718;BME280;34521;33.042;-96.586;2023-04-26T06:28:36;99503.90;;;21.19;32.56
48718;BME280;34521;33.042;-96.586;2023-04-26T06:31:01;99505.30;;;21.24;32.78
48718;BME280;34521;33.042;-96.586;2023-04-26T06:33:26;99499.90;;;21.00;32.77
48718;BME280;34521;33.042;-96.586;2023-04-26T06:35:51;99496.15;;;20.59;33.27
48718;BME280;34521;33.042;-96.586;2023-04-26T06:38:16;99493.61;;;20.82;32.92
48718;BME280;34521;33.042;-96.586;2023-04-26T06:40:41;99489.36;;;20.84;32.62
48718;BME280;34521;33.042;-96.586;2023-04-26T06:43:06;99491.73;;;21.06;32.28
48718;BME280;34521;33.042;-96.586;2023-04-26T06:45:31;99497.06;;;21.17;32.11
48718;BME280;34521;33.042;-96.586;2023-04-26T06:47:56;99499.24;;;21.15;32.11
48718;BME280;34521;33.042;-96.586;2023-04-26T06:50:21;99504.13;;;21.30;32.19
48718;BME280;34521;33.042;-96.586;2023-04-26T06:52:46;99510.92;;;21.65;32.05
48718;BME280;34521;33.042;-96.586;2023-04-26T06:55:11;99520.20;;;21.05;32.15
48718;BME280;34521;33.042;-96.586;2023-04-26T06:57:37;99512.37;;;21.30;31.85
48718;BME280;34521;33.042;-96.586;2023-04-26T07:00:03;99528.99;;;21.46;32.21
48718;BME280;34521;33.042;-96.586;2023-04-26T07:02:27;99529.99;;;21.06;32.13
48718;BME280;34521;33.042;-96.586;2023-04-26T07:04:52;99521.28;;;21.11;32.02
48718;BME280;34521;33.042;-96.586;2023-04-26T07:07:17;99522.88;;;20.27;33.11
48718;BME280;34521;33.042;-96.586;2023-04-26T07:09:42;99519.23;;;19.60;34.57
48718;BME280;34521;33.042;-96.586;2023-04-26T07:12:07;99522.94;;;20.21;34.52
48718;BME280;34521;33.042;-96.586;2023-04-26T07:14:32;99526.80;;;19.76;35.09
48718;BME280;34521;33.042;-96.586;2023-04-26T07:16:57;99530.35;;;19.59;35.35
48718;BME280;34521;33.042;-96.586;2023-04-26T07:19:22;99521.10;;;20.62;34.08
48718;BME280;34521;33.042;-96.586;2023-04-26T07:21:47;99518.67;;;21.01;32.84
48718;BME280;34521;33.042;-96.586;2023-04-26T07:24:12;99523.11;;;21.30;32.51
48718;BME280;34521;33.042;-96.586;2023-04-26T07:26:37;99524.51;;;21.12;32.70
48718;BME280;34521;33.042;-96.586;2023-04-26T07:29:03;99521.03;;;21.20;32.58
48718;BME280;34521;33.042;-96.586;2023-04-26T07:31:28;99504.78;;;21.13;32.36
48718;BME280;34521;33.042;-96.586;2023-04-26T07:33:52;99498.58;;;20.86;32.64
48718;BME280;34521;33.042;-96.586;2023-04-26T07:36:17;99483.11;;;21.00;32.13
48718;BME280;34521;33.042;-96.586;2023-04-26T07:38:42;99471.58;;;20.89;32.22
48718;BME280;34521;33.042;-96.586;2023-04-26T07:41:07;99462.23;;;20.87;32.22
48718;BME280;34521;33.042;-96.586;2023-04-26T07:43:32;99465.43;;;21.10;31.94
48718;BME280;34521;33.042;-96.586;2023-04-26T07:46:00;99458.65;;;20.99;32.02
48718;BME280;34521;33.042;-96.586;2023-04-26T07:48:23;99456.19;;;21.26;31.69
48718;BME280;34521;33.042;-96.586;2023-04-26T07:50:48;99460.55;;;21.26;31.96
48718;BME280;34521;33.042;-96.586;2023-04-26T07:53:13;99470.00;;;21.16;31.76
48718;BME280;34521;33.042;-96.586;2023-04-26T07:55:38;99475.38;;;20.82;32.14
48718;BME280;34521;33.042;-96.586;2023-04-26T07:58:03;99476.66;;;21.24;31.96
48718;BME280;34521;33.042;-96.586;2023-04-26T08:00:28;99469.28;;;21.02;31.88
48718;BME280;34521;33.042;-96.586;2023-04-26T08:02:53;99463.08;;;20.98;31.93
48718;BME280;34521;33.042;-96.586;2023-04-26T08:05:18;99464.79;;;20.82;32.06
48718;BME280;34521;33.042;-96.586;2023-04-26T08:07:43;99463.14;;;20.80;32.79
48718;BME280;34521;33.042;-96.586;2023-04-26T08:10:09;99460.08;;;19.61;34.91
48718;BME280;34521;33.042;-96.586;2023-04-26T08:12:34;99455.66;;;19.56;35.13
48718;BME280;34521;33.042;-96.586;2023-04-26T08:15:00;99448.41;;;19.62;34.99
48718;BME280;34521;33.042;-96.586;2023-04-26T08:17:23;99429.96;;;19.27;35.56
48718;BME280;34521;33.042;-96.586;2023-04-26T08:19:48;99427.64;;;20.83;32.78
48718;BME280;34521;33.042;-96.586;2023-04-26T08:22:14;99455.13;;;21.15;32.37
48718;BME280;34521;33.042;-96.586;2023-04-26T08:24:39;99453.98;;;21.14;32.43
48718;BME280;34521;33.042;-96.586;2023-04-26T08:27:04;99435.05;;;20.78;32.53
48718;BME280;34521;33.042;-96.586;2023-04-26T08:29:29;99436.65;;;20.96;32.57
48718;BME280;34521;33.042;-96.586;2023-04-26T08:31:54;99434.48;;;20.80;32.78
48718;BME280;34521;33.042;-96.586;2023-04-26T08:34:19;99447.05;;;20.80;32.42
48718;BME280;34521;33.042;-96.586;2023-04-26T08:36:45;99484.32;;;21.19;32.21
48718;BME280;34521;33.042;-96.586;2023-04-26T08:39:09;99489.64;;;21.18;31.96
48718;BME280;34521;33.042;-96.586;2023-04-26T08:41:37;99479.87;;;20.92;32.21
48718;BME280;34521;33.042;-96.586;2023-04-26T08:44:00;99485.20;;;20.43;32.52
48718;BME280;34521;33.042;-96.586;2023-04-26T08:46:26;99503.71;;;20.76;32.06
48718;BME280;34521;33.042;-96.586;2023-04-26T08:48:57;99491.57;;;21.15;31.87
48718;BME280;34521;33.042;-96.586;2023-04-26T08:51:16;99470.17;;;20.71;32.40
48718;BME280;34521;33.042;-96.586;2023-04-26T08:53:40;99469.06;;;20.77;32.29
48718;BME280;34521;33.042;-96.586;2023-04-26T08:56:06;99450.47;;;20.60;32.51
48718;BME280;34521;33.042;-96.586;2023-04-26T08:58:30;99471.88;;;20.70;32.38
48718;BME280;34521;33.042;-96.586;2023-04-26T09:00:55;99481.90;;;20.72;32.33
48718;BME280;34521;33.042;-96.586;2023-04-26T09:03:22;99461.18;;;21.28;31.93
48718;BME280;34521;33.042;-96.586;2023-04-26T09:05:45;99445.53;;;19.47;34.41
48718;BME280;34521;33.042;-96.586;2023-04-26T09:08:14;99429.04;;;19.20;35.27
48718;BME280;34521;33.042;-96.586;2023-04-26T09:10:36;99449.39;;;18.92;35.74
48718;BME280;34521;33.042;-96.586;2023-04-26T09:13:00;99462.15;;;18.88;36.13
48718;BME280;34521;33.042;-96.586;2023-04-26T09:15:27;99464.91;;;18.89;35.89
48718;BME280;34521;33.042;-96.586;2023-04-26T09:17:50;99462.09;;;20.36;33.59
48718;BME280;34521;33.042;-96.586;2023-04-26T09:20:21;99485.56;;;20.25;33.28
48718;BME280;34521;33.042;-96.586;2023-04-26T09:22:40;99482.62;;;20.72;32.75
48718;BME280;34521;33.042;-96.586;2023-04-26T09:25:07;99478.62;;;21.12;32.27
48718;BME280;34521;33.042;-96.586;2023-04-26T09:27:33;99487.23;;;21.01;32.29
48718;BME280;34521;33.042;-96.586;2023-04-26T09:30:01;99484.84;;;21.05;32.19
48718;BME280;34521;33.042;-96.586;2023-04-26T09:32:21;99483.97;;;20.83;32.44
48718;BME280;34521;33.042;-96.586;2023-04-26T09:34:46;99485.04;;;21.07;32.09
48718;BME280;34521;33.042;-96.586;2023-04-26T09:37:11;99471.64;;;20.68;32.27
48718;BME280;34521;33.042;-96.586;2023-04-26T09:39:39;99466.37;;;20.71;32.25
48718;BME280;34521;33.042;-96.586;2023-04-26T09:42:01;99462.46;;;21.07;32.04
48718;BME280;34521;33.042;-96.586;2023-04-26T09:44:27;99466.64;;;20.66;32.23
48718;BME280;34521;33.042;-96.586;2023-04-26T09:46:59;99470.44;;;20.53;32.30
48718;BME280;34521;33.042;-96.586;2023-04-26T09:49:16;99466.00;;;20.72;32.09
48718;BME280;34521;33.042;-96.586;2023-04-26T09:54:06;99424.12;;;21.08;31.91
48718;BME280;34521;33.042;-96.586;2023-04-26T09:56:31;99414.59;;;20.93;31.75
48718;BME280;34521;33.042;-96.586;2023-04-26T09:58:57;99427.63;;;21.32;31.57
48718;BME280;34521;33.042;-96.586;2023-04-26T10:01:22;99438.28;;;20.84;31.74
48718;BME280;34521;33.042;-96.586;2023-04-26T10:03:46;99445.14;;;20.62;31.80
48718;BME280;34521;33.042;-96.586;2023-04-26T10:06:12;99455.63;;;19.69;34.15
48718;BME280;34521;33.042;-96.586;2023-04-26T10:08:37;99463.48;;;18.95;35.63
48718;BME280;34521;33.042;-96.586;2023-04-26T10:11:03;99468.10;;;18.63;36.10
48718;BME280;34521;33.042;-96.586;2023-04-26T10:13:27;99461.88;;;19.25;35.63
48718;BME280;34521;33.042;-96.586;2023-04-26T10:15:53;99463.76;;;19.38;35.22
48718;BME280;34521;33.042;-96.586;2023-04-26T10:18:17;99453.30;;;20.59;32.89
48718;BME280;34521;33.042;-96.586;2023-04-26T10:20:44;99461.31;;;20.22;33.03
48718;BME280;34521;33.042;-96.586;2023-04-26T10:23:12;99437.85;;;20.44;32.74
48718;BME280;34521;33.042;-96.586;2023-04-26T10:25:35;99410.82;;;20.40;32.47
48718;BME280;34521;33.042;-96.586;2023-04-26T10:27:57;99435.11;;;20.25;32.33
48718;BME280;34521;33.042;-96.586;2023-04-26T10:30:22;99446.66;;;20.85;32.12
48718;BME280;34521;33.042;-96.586;2023-04-26T10:35:13;99447.35;;;20.88;31.91
48718;BME280;34521;33.042;-96.586;2023-04-26T10:42:28;99460.88;;;20.37;31.91
48718;BME280;34521;33.042;-96.586;2023-04-26T10:44:53;99470.82;;;20.56;31.95
48718;BME280;34521;33.042;-96.586;2023-04-26T10:47:26;99474.69;;;20.77;31.59
48718;BME280;34521;33.042;-96.586;2023-04-26T10:49:45;99465.55;;;20.44;32.02
48718;BME280;34521;33.042;-96.586;2023-04-26T10:52:11;99462.46;;;21.05;31.53
48718;BME280;34521;33.042;-96.586;2023-04-26T10:54:46;99470.10;;;20.55;31.77
48718;BME280;34521;33.042;-96.586;2023-04-26T10:56:58;99461.48;;;20.53;31.80
48718;BME280;34521;33.042;-96.586;2023-04-26T10:59:23;99462.95;;;20.71;31.59
48718;BME280;34521;33.042;-96.586;2023-04-26T11:01:48;99468.57;;;20.96;31.53
48718;BME280;34521;33.042;-96.586;2023-04-26T11:04:13;99464.29;;;19.27;34.26
48718;BME280;34521;33.042;-96.586;2023-04-26T11:06:48;99456.95;;;19.41;34.56
48718;BME280;34521;33.042;-96.586;2023-04-26T11:09:03;99453.10;;;18.67;35.60
48718;BME280;34521;33.042;-96.586;2023-04-26T11:11:28;99442.87;;;18.41;36.37
48718;BME280;34521;33.042;-96.586;2023-04-26T11:13:53;99422.29;;;18.42;36.38
48718;BME280;34521;33.042;-96.586;2023-04-26T11:16:18;99384.76;;;19.96;33.68
48718;BME280;34521;33.042;-96.586;2023-04-26T11:18:44;99362.09;;;20.50;32.56
48718;BME280;34521;33.042;-96.586;2023-04-26T11:21:09;99336.53;;;20.59;32.05
48718;BME280;34521;33.042;-96.586;2023-04-26T11:23:34;99317.90;;;21.02;31.45
48718;BME280;34521;33.042;-96.586;2023-04-26T11:25:59;99313.69;;;20.94;31.50
48718;BME280;34521;33.042;-96.586;2023-04-26T11:28:23;99318.73;;;20.90;31.55
48718;BME280;34521;33.042;-96.586;2023-04-26T11:30:49;99330.13;;;20.85;31.27
48718;BME280;34521;33.042;-96.586;2023-04-26T11:33:19;99360.62;;;20.92;31.40
48718;BME280;34521;33.042;-96.586;2023-04-26T11:35:39;99379.69;;;21.27;30.99
48718;BME280;34521;33.042;-96.586;2023-04-26T11:38:04;99392.21;;;20.54;31.50
48718;BME280;34521;33.042;-96.586;2023-04-26T11:40:30;99393.68;;;20.90;31.35
48718;BME280;34521;33.042;-96.586;2023-04-26T11:42:58;99410.87;;;21.02;30.92
48718;BME280;34521;33.042;-96.586;2023-04-26T11:45:19;99421.34;;;21.37;30.76
48718;BME280;34521;33.042;-96.586;2023-04-26T11:47:45;99399.84;;;20.90;30.95
48718;BME280;34521;33.042;-96.586;2023-04-26T11:50:10;99374.20;;;20.37;31.28
48718;BME280;34521;33.042;-96.586;2023-04-26T11:52:35;99330.29;;;20.98;31.16
48718;BME280;34521;33.042;-96.586;2023-04-26T11:55:05;99283.36;;;20.54;31.38
48718;BME280;34521;33.042;-96.586;2023-04-26T11:57:25;99201.76;;;20.68;31.54
48718;BME280;34521;33.042;-96.586;2023-04-26T11:59:50;99181.35;;;20.28;31.99
48718;BME280;34521;33.042;-96.586;2023-04-26T12:02:15;99219.67;;;19.19;33.43
48718;BME280;34521;33.042;-96.586;2023-04-26T12:04:40;99261.51;;;18.78;35.12
48718;BME280;34521;33.042;-96.586;2023-04-26T12:07:05;99247.73;;;18.19;36.08
48718;BME280;34521;33.042;-96.586;2023-04-26T12:09:30;99201.70;;;18.42;36.25
48718;BME280;34521;33.042;-96.586;2023-04-26T12:11:58;99219.11;;;19.11;36.13
48718;BME280;34521;33.042;-96.586;2023-04-26T12:14:20;99197.73;;;22.01;31.86
48718;BME280;34521;33.042;-96.586;2023-04-26T12:16:46;99209.79;;;21.54;31.42
48718;BME280;34521;33.042;-96.586;2023-04-26T12:19:10;99231.37;;;22.05;30.73
48718;BME280;34521;33.042;-96.586;2023-04-26T12:21:41;99254.93;;;22.17;30.58
48718;BME280;34521;33.042;-96.586;2023-04-26T12:24:00;99270.30;;;22.25;30.19
48718;BME280;34521;33.042;-96.586;2023-04-26T12:26:41;99289.91;;;22.32;30.37
48718;BME280;34521;33.042;-96.586;2023-04-26T12:28:51;99315.96;;;21.72;30.78
48718;BME280;34521;33.042;-96.586;2023-04-26T12:31:16;99316.41;;;22.04;30.69
48718;BME280;34521;33.042;-96.586;2023-04-26T12:33:41;99292.55;;;21.02;31.43
48718;BME280;34521;33.042;-96.586;2023-04-26T12:36:07;99301.10;;;21.22;31.15
48718;BME280;34521;33.042;-96.586;2023-04-26T12:38:31;99302.79;;;21.34;31.20